McCullough, Alabama
Current Conditions -  °F | °C
As of 12:53 PM on Friday 31 Oct 2014 (Local Time) from KGZH Reporting Station
Clear Clear  
Wind Chill: 74°   Ceiling: Unl
Heat Index: 74°   Visibility: 10mi
Dew Point: 45°   Wind: 9mph
Humidity: 35%   Direction: 320°NW
Pressure: 29.94"   Gusts: NA
Location:  31.1324°N, 87.4695°W
Report Text: KGZH 311753Z AUTO 32008KT 10SM CLR 23/07 A2994 RMK AO2 SLP137 T02330072 10233 20056 58022
Loading
Personal Weather Stations






























Interactive Weather Map
Tropical Storm Tracking
New forecast layout! Learn more

10-Day Weather Forecast

Advertisements
Track Severe Weather on mobile